sensor_id;sensor_type;location;lat;lon;timestamp;temperature;humidity
7572;DHT22;3827;49.928;8.548;2022-09-13T00:01:08;13.40;99.90
7572;DHT22;3827;49.928;8.548;2022-09-13T00:03:35;13.30;99.90
7572;DHT22;3827;49.928;8.548;2022-09-13T00:06:10;13.30;99.90
7572;DHT22;3827;49.928;8.548;2022-09-13T00:08:39;13.30;99.90
7572;DHT22;3827;49.928;8.548;2022-09-13T00:11:11;13.40;99.90
7572;DHT22;3827;49.928;8.548;2022-09-13T00:13:39;13.40;99.90
7572;DHT22;3827;49.928;8.548;2022-09-13T00:16:10;13.40;99.90
7572;DHT22;3827;49.928;8.548;2022-09-13T00:18:37;13.30;99.90
7572;DHT22;3827;49.928;8.548;2022-09-13T00:21:06;13.20;99.90
7572;DHT22;3827;49.928;8.548;2022-09-13T00:23:33;13.30;99.90
7572;DHT22;3827;49.928;8.548;2022-09-13T00:26:10;13.20;99.90
7572;DHT22;3827;49.928;8.548;2022-09-13T00:28:37;13.20;99.90
7572;DHT22;3827;49.928;8.548;2022-09-13T00:31:05;13.30;99.90
7572;DHT22;3827;49.928;8.548;2022-09-13T00:33:33;13.10;99.90
7572;DHT22;3827;49.928;8.548;2022-09-13T00:36:02;13.10;99.90
7572;DHT22;3827;49.928;8.548;2022-09-13T00:38:29;13.10;99.90
7572;DHT22;3827;49.928;8.548;2022-09-13T00:43:43;13.10;99.90
7572;DHT22;3827;49.928;8.548;2022-09-13T00:46:12;13.10;99.90
7572;DHT22;3827;49.928;8.548;2022-09-13T00:48:41;13.00;99.90
7572;DHT22;3827;49.928;8.548;2022-09-13T00:51:08;13.00;99.90
7572;DHT22;3827;49.928;8.548;2022-09-13T00:53:38;12.90;99.90
7572;DHT22;3827;49.928;8.548;2022-09-13T00:56:10;12.90;99.90
7572;DHT22;3827;49.928;8.548;2022-09-13T00:58:41;13.00;99.90
7572;DHT22;3827;49.928;8.548;2022-09-13T01:01:12;13.00;99.90
7572;DHT22;3827;49.928;8.548;2022-09-13T01:03:41;13.30;99.90
7572;DHT22;3827;49.928;8.548;2022-09-13T01:06:13;12.90;99.90
7572;DHT22;3827;49.928;8.548;2022-09-13T01:08:42;12.90;99.90
7572;DHT22;3827;49.928;8.548;2022-09-13T01:11:14;12.90;99.90
7572;DHT22;3827;49.928;8.548;2022-09-13T01:13:44;12.90;99.90
7572;DHT22;3827;49.928;8.548;2022-09-13T01:16:12;12.80;99.90
7572;DHT22;3827;49.928;8.548;2022-09-13T01:18:39;12.80;99.90
7572;DHT22;3827;49.928;8.548;2022-09-13T01:21:35;12.90;99.90
7572;DHT22;3827;49.928;8.548;2022-09-13T01:24:54;12.80;99.90
7572;DHT22;3827;49.928;8.548;2022-09-13T01:30:20;12.80;99.90
7572;DHT22;3827;49.928;8.548;2022-09-13T01:32:59;12.70;99.90
7572;DHT22;3827;49.928;8.548;2022-09-13T01:38:32;12.50;99.90
7572;DHT22;3827;49.928;8.548;2022-09-13T01:41:08;12.50;99.90
7572;DHT22;3827;49.928;8.548;2022-09-13T01:43:44;12.50;99.90
7572;DHT22;3827;49.928;8.548;2022-09-13T01:46:20;12.40;99.90
7572;DHT22;3827;49.928;8.548;2022-09-13T01:48:55;12.50;99.90
7572;DHT22;3827;49.928;8.548;2022-09-13T01:51:27;12.50;99.90
7572;DHT22;3827;49.928;8.548;2022-09-13T01:54:08;12.50;99.90
7572;DHT22;3827;49.928;8.548;2022-09-13T01:56:41;12.50;99.90
7572;DHT22;3827;49.928;8.548;2022-09-13T01:59:13;12.50;99.90
7572;DHT22;3827;49.928;8.548;2022-09-13T02:01:48;12.40;99.90
7572;DHT22;3827;49.928;8.548;2022-09-13T02:04:21;12.40;99.90
7572;DHT22;3827;49.928;8.548;2022-09-13T02:06:52;12.40;99.90
7572;DHT22;3827;49.928;8.548;2022-09-13T02:09:25;12.30;99.90
7572;DHT22;3827;49.928;8.548;2022-09-13T02:11:57;12.20;99.90
7572;DHT22;3827;49.928;8.548;2022-09-13T02:14:28;12.10;99.90
7572;DHT22;3827;49.928;8.548;2022-09-13T02:17:01;12.00;99.90
7572;DHT22;3827;49.928;8.548;2022-09-13T02:19:34;11.80;99.90
7572;DHT22;3827;49.928;8.548;2022-09-13T02:22:03;11.90;99.90
7572;DHT22;3827;49.928;8.548;2022-09-13T02:24:33;11.90;99.90
7572;DHT22;3827;49.928;8.548;2022-09-13T02:27:04;11.90;99.90
7572;DHT22;3827;49.928;8.548;2022-09-13T02:29:35;11.90;99.90
7572;DHT22;3827;49.928;8.548;2022-09-13T02:32:07;11.80;99.90
7572;DHT22;3827;49.928;8.548;2022-09-13T02:34:38;11.80;99.90
7572;DHT22;3827;49.928;8.548;2022-09-13T02:37:08;11.90;99.90
7572;DHT22;3827;49.928;8.548;2022-09-13T02:39:41;12.00;99.90
7572;DHT22;3827;49.928;8.548;2022-09-13T02:42:13;12.10;99.90
7572;DHT22;3827;49.928;8.548;2022-09-13T02:44:44;12.20;99.90
7572;DHT22;3827;49.928;8.548;2022-09-13T02:47:29;12.20;99.90
7572;DHT22;3827;49.928;8.548;2022-09-13T02:50:06;12.30;99.90
7572;DHT22;3827;49.928;8.548;2022-09-13T02:52:42;12.40;99.90
7572;DHT22;3827;49.928;8.548;2022-09-13T02:55:17;12.50;99.90
7572;DHT22;3827;49.928;8.548;2022-09-13T02:57:53;12.60;99.90
7572;DHT22;3827;49.928;8.548;2022-09-13T03:00:21;12.60;99.90
7572;DHT22;3827;49.928;8.548;2022-09-13T03:02:50;12.60;99.90
7572;DHT22;3827;49.928;8.548;2022-09-13T03:05:17;12.70;99.90
7572;DHT22;3827;49.928;8.548;2022-09-13T03:07:44;12.70;99.90
7572;DHT22;3827;49.928;8.548;2022-09-13T03:10:13;12.70;99.90
7572;DHT22;3827;49.928;8.548;2022-09-13T03:13:04;12.80;99.90
7572;DHT22;3827;49.928;8.548;2022-09-13T03:15:47;12.80;99.90
7572;DHT22;3827;49.928;8.548;2022-09-13T03:18:29;12.80;99.90
7572;DHT22;3827;49.928;8.548;2022-09-13T03:21:06;12.80;99.90
7572;DHT22;3827;49.928;8.548;2022-09-13T03:23:41;12.90;99.90
7572;DHT22;3827;49.928;8.548;2022-09-13T03:26:28;12.90;99.90
7572;DHT22;3827;49.928;8.548;2022-09-13T03:29:24;12.90;99.90
7572;DHT22;3827;49.928;8.548;2022-09-13T03:32:03;12.90;99.90
7572;DHT22;3827;49.928;8.548;2022-09-13T03:34:39;12.90;99.90
7572;DHT22;3827;49.928;8.548;2022-09-13T03:37:15;12.90;99.90
7572;DHT22;3827;49.928;8.548;2022-09-13T03:39:46;12.90;99.90
7572;DHT22;3827;49.928;8.548;2022-09-13T03:42:19;12.90;99.90
7572;DHT22;3827;49.928;8.548;2022-09-13T03:44:50;12.90;99.90
7572;DHT22;3827;49.928;8.548;2022-09-13T03:47:18;12.80;99.90
7572;DHT22;3827;49.928;8.548;2022-09-13T03:49:48;12.90;99.90
7572;DHT22;3827;49.928;8.548;2022-09-13T03:52:16;12.90;99.90
7572;DHT22;3827;49.928;8.548;2022-09-13T03:54:43;12.90;99.90
7572;DHT22;3827;49.928;8.548;2022-09-13T03:57:12;12.90;99.90
7572;DHT22;3827;49.928;8.548;2022-09-13T03:59:42;12.90;99.90
7572;DHT22;3827;49.928;8.548;2022-09-13T04:02:11;12.90;99.90
7572;DHT22;3827;49.928;8.548;2022-09-13T04:04:39;13.00;99.90
7572;DHT22;3827;49.928;8.548;2022-09-13T04:07:08;13.00;99.90
7572;DHT22;3827;49.928;8.548;2022-09-13T04:09:35;13.10;99.90
7572;DHT22;3827;49.928;8.548;2022-09-13T04:12:02;13.10;99.90
7572;DHT22;3827;49.928;8.548;2022-09-13T04:14:29;13.10;99.90
7572;DHT22;3827;49.928;8.548;2022-09-13T04:16:56;13.10;99.90
7572;DHT22;3827;49.928;8.548;2022-09-13T04:19:24;13.10;99.90
7572;DHT22;3827;49.928;8.548;2022-09-13T04:21:53;13.10;99.90
7572;DHT22;3827;49.928;8.548;2022-09-13T04:24:24;13.10;99.90
7572;DHT22;3827;49.928;8.548;2022-09-13T04:26:51;13.20;99.90
7572;DHT22;3827;49.928;8.548;2022-09-13T04:29:19;13.10;99.90
7572;DHT22;3827;49.928;8.548;2022-09-13T04:31:46;13.10;99.90
7572;DHT22;3827;49.928;8.548;2022-09-13T04:34:14;13.10;99.90
7572;DHT22;3827;49.928;8.548;2022-09-13T04:36:41;13.10;99.90
7572;DHT22;3827;49.928;8.548;2022-09-13T04:39:08;13.10;99.90
7572;DHT22;3827;49.928;8.548;2022-09-13T04:41:36;13.10;99.90
7572;DHT22;3827;49.928;8.548;2022-09-13T04:44:03;13.00;99.90
7572;DHT22;3827;49.928;8.548;2022-09-13T04:46:30;13.00;99.90
7572;DHT22;3827;49.928;8.548;2022-09-13T04:48:56;12.90;99.90
7572;DHT22;3827;49.928;8.548;2022-09-13T04:51:23;12.80;99.90
7572;DHT22;3827;49.928;8.548;2022-09-13T04:53:54;12.80;99.90
7572;DHT22;3827;49.928;8.548;2022-09-13T04:56:22;12.80;99.90
7572;DHT22;3827;49.928;8.548;2022-09-13T04:58:51;12.90;99.90
7572;DHT22;3827;49.928;8.548;2022-09-13T05:01:18;12.70;99.90
7572;DHT22;3827;49.928;8.548;2022-09-13T05:03:45;12.70;99.90
7572;DHT22;3827;49.928;8.548;2022-09-13T05:06:13;12.70;99.90
7572;DHT22;3827;49.928;8.548;2022-09-13T05:08:42;12.70;99.90
7572;DHT22;3827;49.928;8.548;2022-09-13T05:11:09;12.70;99.90
7572;DHT22;3827;49.928;8.548;2022-09-13T05:13:36;12.80;99.90
7572;DHT22;3827;49.928;8.548;2022-09-13T05:16:06;12.90;99.90
7572;DHT22;3827;49.928;8.548;2022-09-13T05:18:34;12.90;99.90
7572;DHT22;3827;49.928;8.548;2022-09-13T05:21:03;13.00;99.90
7572;DHT22;3827;49.928;8.548;2022-09-13T05:23:31;13.10;99.90
7572;DHT22;3827;49.928;8.548;2022-09-13T05:26:00;13.20;99.90
7572;DHT22;3827;49.928;8.548;2022-09-13T05:28:28;13.30;99.90
7572;DHT22;3827;49.928;8.548;2022-09-13T05:30:56;13.40;99.90
7572;DHT22;3827;49.928;8.548;2022-09-13T05:33:25;13.50;99.90
7572;DHT22;3827;49.928;8.548;2022-09-13T05:35:53;13.50;99.90
7572;DHT22;3827;49.928;8.548;2022-09-13T05:38:20;13.50;99.90
7572;DHT22;3827;49.928;8.548;2022-09-13T05:40:52;13.60;99.90
7572;DHT22;3827;49.928;8.548;2022-09-13T05:43:19;13.60;99.90
7572;DHT22;3827;49.928;8.548;2022-09-13T05:45:46;13.70;99.90
7572;DHT22;3827;49.928;8.548;2022-09-13T05:48:13;13.60;99.90
7572;DHT22;3827;49.928;8.548;2022-09-13T05:50:41;13.70;99.90
7572;DHT22;3827;49.928;8.548;2022-09-13T05:53:08;13.60;99.90
7572;DHT22;3827;49.928;8.548;2022-09-13T05:55:34;13.50;99.90
7572;DHT22;3827;49.928;8.548;2022-09-13T05:58:01;13.50;99.90
7572;DHT22;3827;49.928;8.548;2022-09-13T06:00:28;13.40;99.90
7572;DHT22;3827;49.928;8.548;2022-09-13T06:02:56;13.40;99.90
7572;DHT22;3827;49.928;8.548;2022-09-13T06:05:23;13.50;99.90
7572;DHT22;3827;49.928;8.548;2022-09-13T06:07:51;13.70;99.90
7572;DHT22;3827;49.928;8.548;2022-09-13T06:10:18;13.80;99.90
7572;DHT22;3827;49.928;8.548;2022-09-13T06:12:45;13.80;99.90
7572;DHT22;3827;49.928;8.548;2022-09-13T06:15:12;13.90;99.90
7572;DHT22;3827;49.928;8.548;2022-09-13T06:17:40;13.90;99.90
7572;DHT22;3827;49.928;8.548;2022-09-13T06:20:07;14.00;99.90
7572;DHT22;3827;49.928;8.548;2022-09-13T06:22:35;14.20;99.90
7572;DHT22;3827;49.928;8.548;2022-09-13T06:25:04;14.20;99.90
7572;DHT22;3827;49.928;8.548;2022-09-13T06:27:31;14.40;99.90
7572;DHT22;3827;49.928;8.548;2022-09-13T06:29:57;14.50;99.90
7572;DHT22;3827;49.928;8.548;2022-09-13T06:32:24;14.60;99.90
7572;DHT22;3827;49.928;8.548;2022-09-13T06:34:51;14.70;99.90
7572;DHT22;3827;49.928;8.548;2022-09-13T06:37:18;14.80;99.90
7572;DHT22;3827;49.928;8.548;2022-09-13T06:39:44;14.80;99.90
7572;DHT22;3827;49.928;8.548;2022-09-13T06:42:13;14.80;99.90
7572;DHT22;3827;49.928;8.548;2022-09-13T06:44:40;14.90;99.90
7572;DHT22;3827;49.928;8.548;2022-09-13T06:47:06;14.90;99.90
7572;DHT22;3827;49.928;8.548;2022-09-13T06:49:33;15.00;99.90
7572;DHT22;3827;49.928;8.548;2022-09-13T06:52:00;14.90;99.90
7572;DHT22;3827;49.928;8.548;2022-09-13T06:54:27;14.80;99.90
7572;DHT22;3827;49.928;8.548;2022-09-13T06:56:53;15.00;99.90
7572;DHT22;3827;49.928;8.548;2022-09-13T06:59:22;14.80;99.90
7572;DHT22;3827;49.928;8.548;2022-09-13T07:01:49;14.70;99.90
7572;DHT22;3827;49.928;8.548;2022-09-13T07:04:16;14.60;99.90
7572;DHT22;3827;49.928;8.548;2022-09-13T07:06:46;14.60;99.90
7572;DHT22;3827;49.928;8.548;2022-09-13T07:09:15;14.60;99.90
7572;DHT22;3827;49.928;8.548;2022-09-13T07:11:43;14.80;99.90
7572;DHT22;3827;49.928;8.548;2022-09-13T07:14:13;15.00;99.90
7572;DHT22;3827;49.928;8.548;2022-09-13T07:16:41;15.10;99.90
7572;DHT22;3827;49.928;8.548;2022-09-13T07:19:12;15.10;99.90
7572;DHT22;3827;49.928;8.548;2022-09-13T07:21:40;15.20;99.90
7572;DHT22;3827;49.928;8.548;2022-09-13T07:24:08;15.10;99.90
7572;DHT22;3827;49.928;8.548;2022-09-13T07:26:35;15.20;99.90
7572;DHT22;3827;49.928;8.548;2022-09-13T07:29:04;15.40;99.90
7572;DHT22;3827;49.928;8.548;2022-09-13T07:31:32;15.50;99.90
7572;DHT22;3827;49.928;8.548;2022-09-13T07:34:03;15.50;99.90
7572;DHT22;3827;49.928;8.548;2022-09-13T07:36:31;15.50;99.90
7572;DHT22;3827;49.928;8.548;2022-09-13T07:38:59;15.60;99.90
7572;DHT22;3827;49.928;8.548;2022-09-13T07:41:27;15.70;99.90
7572;DHT22;3827;49.928;8.548;2022-09-13T07:43:54;15.90;99.90
7572;DHT22;3827;49.928;8.548;2022-09-13T07:46:23;15.80;99.90
7572;DHT22;3827;49.928;8.548;2022-09-13T07:48:52;15.80;99.90
7572;DHT22;3827;49.928;8.548;2022-09-13T07:51:21;15.90;99.90
7572;DHT22;3827;49.928;8.548;2022-09-13T07:53:50;15.90;99.90
7572;DHT22;3827;49.928;8.548;2022-09-13T07:56:19;15.90;99.90
7572;DHT22;3827;49.928;8.548;2022-09-13T07:58:47;16.00;99.90
7572;DHT22;3827;49.928;8.548;2022-09-13T08:01:17;16.00;99.90
7572;DHT22;3827;49.928;8.548;2022-09-13T08:03:50;16.10;99.90
7572;DHT22;3827;49.928;8.548;2022-09-13T08:06:17;16.10;99.90
7572;DHT22;3827;49.928;8.548;2022-09-13T08:08:45;16.30;99.90
7572;DHT22;3827;49.928;8.548;2022-09-13T08:11:15;16.30;99.90
7572;DHT22;3827;49.928;8.548;2022-09-13T08:13:43;16.30;99.90
7572;DHT22;3827;49.928;8.548;2022-09-13T08:16:10;16.50;99.90
7572;DHT22;3827;49.928;8.548;2022-09-13T08:18:37;16.60;99.90
7572;DHT22;3827;49.928;8.548;2022-09-13T08:21:04;16.60;99.90
7572;DHT22;3827;49.928;8.548;2022-09-13T08:23:31;16.70;99.90
7572;DHT22;3827;49.928;8.548;2022-09-13T08:26:03;17.00;99.90
7572;DHT22;3827;49.928;8.548;2022-09-13T08:28:31;17.10;99.90
7572;DHT22;3827;49.928;8.548;2022-09-13T08:31:03;17.30;99.90
7572;DHT22;3827;49.928;8.548;2022-09-13T08:33:30;17.40;99.90
7572;DHT22;3827;49.928;8.548;2022-09-13T08:35:57;17.40;99.90
7572;DHT22;3827;49.928;8.548;2022-09-13T08:38:24;17.60;99.90
7572;DHT22;3827;49.928;8.548;2022-09-13T08:40:54;17.50;99.90
7572;DHT22;3827;49.928;8.548;2022-09-13T08:43:38;17.50;99.90
7572;DHT22;3827;49.928;8.548;2022-09-13T08:46:11;17.10;99.90
7572;DHT22;3827;49.928;8.548;2022-09-13T08:48:44;17.00;99.90
7572;DHT22;3827;49.928;8.548;2022-09-13T08:51:26;16.90;99.90
7572;DHT22;3827;49.928;8.548;2022-09-13T08:53:54;17.00;99.90
7572;DHT22;3827;49.928;8.548;2022-09-13T08:56:25;17.40;99.90
7572;DHT22;3827;49.928;8.548;2022-09-13T08:59:05;17.00;99.90
7572;DHT22;3827;49.928;8.548;2022-09-13T09:01:44;16.90;99.90
7572;DHT22;3827;49.928;8.548;2022-09-13T09:04:22;16.80;99.90
7572;DHT22;3827;49.928;8.548;2022-09-13T09:07:02;16.70;99.90
7572;DHT22;3827;49.928;8.548;2022-09-13T09:09:33;16.50;99.90
7572;DHT22;3827;49.928;8.548;2022-09-13T09:12:10;16.50;99.90
7572;DHT22;3827;49.928;8.548;2022-09-13T09:14:43;16.40;99.90
7572;DHT22;3827;49.928;8.548;2022-09-13T09:17:15;16.40;99.90
7572;DHT22;3827;49.928;8.548;2022-09-13T09:19:45;16.40;99.90
7572;DHT22;3827;49.928;8.548;2022-09-13T09:22:17;16.50;99.90
7572;DHT22;3827;49.928;8.548;2022-09-13T09:24:46;16.50;99.90
7572;DHT22;3827;49.928;8.548;2022-09-13T09:27:15;16.60;99.90
7572;DHT22;3827;49.928;8.548;2022-09-13T09:29:45;16.70;99.90
7572;DHT22;3827;49.928;8.548;2022-09-13T09:32:22;16.80;99.90
7572;DHT22;3827;49.928;8.548;2022-09-13T09:35:02;16.90;99.90
7572;DHT22;3827;49.928;8.548;2022-09-13T09:37:33;17.10;99.90
7572;DHT22;3827;49.928;8.548;2022-09-13T09:40:05;17.20;99.90
7572;DHT22;3827;49.928;8.548;2022-09-13T09:42:40;17.20;99.90
7572;DHT22;3827;49.928;8.548;2022-09-13T09:45:24;17.30;99.90
7572;DHT22;3827;49.928;8.548;2022-09-13T09:47:53;17.40;99.90
7572;DHT22;3827;49.928;8.548;2022-09-13T09:50:22;17.50;99.90
7572;DHT22;3827;49.928;8.548;2022-09-13T09:52:56;17.50;99.90
7572;DHT22;3827;49.928;8.548;2022-09-13T09:55:27;17.60;99.90
7572;DHT22;3827;49.928;8.548;2022-09-13T09:57:56;17.30;99.90
7572;DHT22;3827;49.928;8.548;2022-09-13T10:00:27;17.20;99.90
7572;DHT22;3827;49.928;8.548;2022-09-13T10:02:57;17.20;99.90
7572;DHT22;3827;49.928;8.548;2022-09-13T10:05:26;16.80;99.90
7572;DHT22;3827;49.928;8.548;2022-09-13T10:07:55;16.80;99.90
7572;DHT22;3827;49.928;8.548;2022-09-13T10:10:25;16.90;99.90
7572;DHT22;3827;49.928;8.548;2022-09-13T10:12:55;17.00;99.90
7572;DHT22;3827;49.928;8.548;2022-09-13T10:15:27;17.00;99.90
7572;DHT22;3827;49.928;8.548;2022-09-13T10:18:03;17.10;99.90
7572;DHT22;3827;49.928;8.548;2022-09-13T10:20:31;17.10;99.90
7572;DHT22;3827;49.928;8.548;2022-09-13T10:23:18;17.10;99.90
7572;DHT22;3827;49.928;8.548;2022-09-13T10:26:04;17.10;99.90
7572;DHT22;3827;49.928;8.548;2022-09-13T10:28:35;17.10;99.90
7572;DHT22;3827;49.928;8.548;2022-09-13T10:31:05;17.10;99.90
7572;DHT22;3827;49.928;8.548;2022-09-13T10:33:36;17.10;99.90
7572;DHT22;3827;49.928;8.548;2022-09-13T10:36:06;17.10;99.90
7572;DHT22;3827;49.928;8.548;2022-09-13T10:38:38;17.10;99.90
7572;DHT22;3827;49.928;8.548;2022-09-13T10:41:08;17.10;99.90
7572;DHT22;3827;49.928;8.548;2022-09-13T10:43:36;17.10;99.90
7572;DHT22;3827;49.928;8.548;2022-09-13T10:46:09;17.20;99.90
7572;DHT22;3827;49.928;8.548;2022-09-13T10:48:46;17.30;99.90
7572;DHT22;3827;49.928;8.548;2022-09-13T10:51:30;17.40;99.90
7572;DHT22;3827;49.928;8.548;2022-09-13T10:54:15;17.30;99.90
7572;DHT22;3827;49.928;8.548;2022-09-13T10:56:43;17.40;99.90
7572;DHT22;3827;49.928;8.548;2022-09-13T10:59:24;17.60;99.90
7572;DHT22;3827;49.928;8.548;2022-09-13T11:02:28;17.70;99.90
7572;DHT22;3827;49.928;8.548;2022-09-13T11:05:20;17.80;99.90
7572;DHT22;3827;49.928;8.548;2022-09-13T11:08:17;18.10;99.90
7572;DHT22;3827;49.928;8.548;2022-09-13T11:10:58;18.00;99.90
7572;DHT22;3827;49.928;8.548;2022-09-13T11:13:37;17.90;99.90
7572;DHT22;3827;49.928;8.548;2022-09-13T11:16:17;18.10;99.90
7572;DHT22;3827;49.928;8.548;2022-09-13T11:18:57;18.30;99.90
7572;DHT22;3827;49.928;8.548;2022-09-13T11:21:35;18.60;99.90
7572;DHT22;3827;49.928;8.548;2022-09-13T11:24:28;18.90;99.90
7572;DHT22;3827;49.928;8.548;2022-09-13T11:27:02;18.70;99.90
7572;DHT22;3827;49.928;8.548;2022-09-13T11:30:00;18.60;99.90
7572;DHT22;3827;49.928;8.548;2022-09-13T11:32:38;18.50;99.90
7572;DHT22;3827;49.928;8.548;2022-09-13T11:35:27;18.70;99.90
7572;DHT22;3827;49.928;8.548;2022-09-13T11:38:03;18.80;99.90
7572;DHT22;3827;49.928;8.548;2022-09-13T11:40:37;18.80;99.90
7572;DHT22;3827;49.928;8.548;2022-09-13T11:46:05;19.40;99.90
7572;DHT22;3827;49.928;8.548;2022-09-13T11:51:45;19.50;99.90
7572;DHT22;3827;49.928;8.548;2022-09-13T11:54:24;19.50;99.90
7572;DHT22;3827;49.928;8.548;2022-09-13T11:56:59;19.40;99.90
7572;DHT22;3827;49.928;8.548;2022-09-13T11:59:36;19.40;99.90
7572;DHT22;3827;49.928;8.548;2022-09-13T12:02:17;19.30;99.90
7572;DHT22;3827;49.928;8.548;2022-09-13T12:04:51;19.30;99.90
7572;DHT22;3827;49.928;8.548;2022-09-13T12:07:28;19.30;99.90
7572;DHT22;3827;49.928;8.548;2022-09-13T12:10:01;19.50;99.90
7572;DHT22;3827;49.928;8.548;2022-09-13T12:12:33;19.50;99.90
7572;DHT22;3827;49.928;8.548;2022-09-13T12:15:04;19.60;99.90
7572;DHT22;3827;49.928;8.548;2022-09-13T12:17:36;19.60;99.90
7572;DHT22;3827;49.928;8.548;2022-09-13T12:20:11;19.70;99.90
7572;DHT22;3827;49.928;8.548;2022-09-13T12:22:44;19.80;99.90
7572;DHT22;3827;49.928;8.548;2022-09-13T12:25:19;19.80;99.90
7572;DHT22;3827;49.928;8.548;2022-09-13T12:27:53;19.80;99.90
7572;DHT22;3827;49.928;8.548;2022-09-13T12:30:21;19.80;99.90
7572;DHT22;3827;49.928;8.548;2022-09-13T12:32:51;19.60;99.90
7572;DHT22;3827;49.928;8.548;2022-09-13T12:35:23;19.60;99.90
7572;DHT22;3827;49.928;8.548;2022-09-13T12:41:01;19.60;99.90
7572;DHT22;3827;49.928;8.548;2022-09-13T12:44:04;19.50;99.90
7572;DHT22;3827;49.928;8.548;2022-09-13T12:47:09;19.60;99.90
7572;DHT22;3827;49.928;8.548;2022-09-13T12:49:50;19.40;99.90
7572;DHT22;3827;49.928;8.548;2022-09-13T12:52:31;19.40;99.90
7572;DHT22;3827;49.928;8.548;2022-09-13T12:55:29;19.40;99.90
7572;DHT22;3827;49.928;8.548;2022-09-13T12:58:15;19.60;99.90
7572;DHT22;3827;49.928;8.548;2022-09-13T13:00:58;19.60;99.90
7572;DHT22;3827;49.928;8.548;2022-09-13T13:03:32;19.70;99.90
7572;DHT22;3827;49.928;8.548;2022-09-13T13:06:07;20.00;99.90
7572;DHT22;3827;49.928;8.548;2022-09-13T13:08:37;20.00;99.90
7572;DHT22;3827;49.928;8.548;2022-09-13T13:11:07;20.20;99.90
7572;DHT22;3827;49.928;8.548;2022-09-13T13:13:37;20.40;99.90
7572;DHT22;3827;49.928;8.548;2022-09-13T13:16:20;20.30;99.90
7572;DHT22;3827;49.928;8.548;2022-09-13T13:18:49;20.10;99.90
7572;DHT22;3827;49.928;8.548;2022-09-13T13:21:29;20.10;99.90
7572;DHT22;3827;49.928;8.548;2022-09-13T13:30:45;20.20;99.90
7572;DHT22;3827;49.928;8.548;2022-09-13T13:33:22;20.00;99.90
7572;DHT22;3827;49.928;8.548;2022-09-13T13:35:50;19.90;99.90
7572;DHT22;3827;49.928;8.548;2022-09-13T13:38:40;19.90;99.90
7572;DHT22;3827;49.928;8.548;2022-09-13T13:41:44;20.00;99.90
7572;DHT22;3827;49.928;8.548;2022-09-13T13:44:54;20.10;99.90
7572;DHT22;3827;49.928;8.548;2022-09-13T13:50:21;20.30;99.90
7572;DHT22;3827;49.928;8.548;2022-09-13T13:52:53;20.50;99.90
7572;DHT22;3827;49.928;8.548;2022-09-13T13:55:40;20.50;99.90
7572;DHT22;3827;49.928;8.548;2022-09-13T13:58:29;20.50;99.90
7572;DHT22;3827;49.928;8.548;2022-09-13T14:01:00;20.80;99.90
7572;DHT22;3827;49.928;8.548;2022-09-13T14:03:37;20.70;99.90
7572;DHT22;3827;49.928;8.548;2022-09-13T14:06:12;20.90;99.90
7572;DHT22;3827;49.928;8.548;2022-09-13T14:08:50;21.00;99.90
7572;DHT22;3827;49.928;8.548;2022-09-13T14:11:31;21.10;99.90
7572;DHT22;3827;49.928;8.548;2022-09-13T14:14:12;21.00;99.90
7572;DHT22;3827;49.928;8.548;2022-09-13T14:16:50;21.00;99.90
7572;DHT22;3827;49.928;8.548;2022-09-13T14:19:25;20.80;99.90
7572;DHT22;3827;49.928;8.548;2022-09-13T14:22:20;20.80;99.90
7572;DHT22;3827;49.928;8.548;2022-09-13T14:24:48;20.80;99.90
7572;DHT22;3827;49.928;8.548;2022-09-13T14:27:18;21.00;99.90
7572;DHT22;3827;49.928;8.548;2022-09-13T14:29:48;20.80;99.90
7572;DHT22;3827;49.928;8.548;2022-09-13T14:32:19;20.70;99.90
7572;DHT22;3827;49.928;8.548;2022-09-13T14:35:00;20.50;99.90
7572;DHT22;3827;49.928;8.548;2022-09-13T14:37:31;20.50;99.90
7572;DHT22;3827;49.928;8.548;2022-09-13T14:40:01;20.60;99.90
7572;DHT22;3827;49.928;8.548;2022-09-13T14:42:38;20.70;99.90
7572;DHT22;3827;49.928;8.548;2022-09-13T14:45:10;20.80;99.90
7572;DHT22;3827;49.928;8.548;2022-09-13T14:47:45;20.90;99.90
7572;DHT22;3827;49.928;8.548;2022-09-13T14:50:15;20.90;99.90
7572;DHT22;3827;49.928;8.548;2022-09-13T14:52:47;20.80;99.90
7572;DHT22;3827;49.928;8.548;2022-09-13T14:55:18;20.90;99.90
7572;DHT22;3827;49.928;8.548;2022-09-13T14:57:49;20.90;99.90
7572;DHT22;3827;49.928;8.548;2022-09-13T15:00:19;20.90;99.90
7572;DHT22;3827;49.928;8.548;2022-09-13T15:02:50;20.90;99.90
7572;DHT22;3827;49.928;8.548;2022-09-13T15:05:20;20.90;99.90
7572;DHT22;3827;49.928;8.548;2022-09-13T15:07:48;20.90;99.90
7572;DHT22;3827;49.928;8.548;2022-09-13T15:10:23;20.90;99.90
7572;DHT22;3827;49.928;8.548;2022-09-13T15:12:53;20.80;99.90
7572;DHT22;3827;49.928;8.548;2022-09-13T15:15:29;20.70;99.90
7572;DHT22;3827;49.928;8.548;2022-09-13T15:18:00;20.70;99.90
7572;DHT22;3827;49.928;8.548;2022-09-13T15:20:29;20.50;99.90
7572;DHT22;3827;49.928;8.548;2022-09-13T15:23:13;20.40;99.90
7572;DHT22;3827;49.928;8.548;2022-09-13T15:25:47;20.30;99.90
7572;DHT22;3827;49.928;8.548;2022-09-13T15:28:20;20.20;99.90
7572;DHT22;3827;49.928;8.548;2022-09-13T15:30:48;20.10;99.90
7572;DHT22;3827;49.928;8.548;2022-09-13T15:33:23;20.00;99.90
7572;DHT22;3827;49.928;8.548;2022-09-13T15:35:50;19.90;99.90
7572;DHT22;3827;49.928;8.548;2022-09-13T15:38:24;19.80;99.90
7572;DHT22;3827;49.928;8.548;2022-09-13T15:41:02;19.90;99.90
7572;DHT22;3827;49.928;8.548;2022-09-13T15:43:37;19.80;99.90
7572;DHT22;3827;49.928;8.548;2022-09-13T15:46:04;19.90;99.90
7572;DHT22;3827;49.928;8.548;2022-09-13T15:48:34;19.90;99.90
7572;DHT22;3827;49.928;8.548;2022-09-13T15:51:05;19.90;99.90
7572;DHT22;3827;49.928;8.548;2022-09-13T15:53:33;19.80;99.90
7572;DHT22;3827;49.928;8.548;2022-09-13T15:56:00;19.90;99.90
7572;DHT22;3827;49.928;8.548;2022-09-13T15:58:28;19.80;99.90
7572;DHT22;3827;49.928;8.548;2022-09-13T16:00:55;19.90;99.90
7572;DHT22;3827;49.928;8.548;2022-09-13T16:03:21;19.80;99.90
7572;DHT22;3827;49.928;8.548;2022-09-13T16:05:50;19.90;99.90
7572;DHT22;3827;49.928;8.548;2022-09-13T16:08:17;19.90;99.90
7572;DHT22;3827;49.928;8.548;2022-09-13T16:10:44;20.00;99.90
7572;DHT22;3827;49.928;8.548;2022-09-13T16:13:11;19.90;99.90
7572;DHT22;3827;49.928;8.548;2022-09-13T16:15:38;20.00;99.90
7572;DHT22;3827;49.928;8.548;2022-09-13T16:18:05;19.90;99.90
7572;DHT22;3827;49.928;8.548;2022-09-13T16:20:32;19.90;99.90
7572;DHT22;3827;49.928;8.548;2022-09-13T16:23:00;20.00;99.90
7572;DHT22;3827;49.928;8.548;2022-09-13T16:25:27;19.90;99.90
7572;DHT22;3827;49.928;8.548;2022-09-13T16:27:55;19.90;99.90
7572;DHT22;3827;49.928;8.548;2022-09-13T16:30:23;19.90;99.90
7572;DHT22;3827;49.928;8.548;2022-09-13T16:32:52;19.80;99.90
7572;DHT22;3827;49.928;8.548;2022-09-13T16:35:19;19.80;99.90
7572;DHT22;3827;49.928;8.548;2022-09-13T16:37:46;19.80;99.90
7572;DHT22;3827;49.928;8.548;2022-09-13T16:40:18;19.70;99.90
7572;DHT22;3827;49.928;8.548;2022-09-13T16:42:45;19.70;99.90
7572;DHT22;3827;49.928;8.548;2022-09-13T16:45:12;19.60;99.90
7572;DHT22;3827;49.928;8.548;2022-09-13T16:47:39;19.60;99.90
7572;DHT22;3827;49.928;8.548;2022-09-13T16:50:08;19.50;99.90
7572;DHT22;3827;49.928;8.548;2022-09-13T16:52:37;19.40;99.90
7572;DHT22;3827;49.928;8.548;2022-09-13T16:55:06;19.40;99.90
7572;DHT22;3827;49.928;8.548;2022-09-13T16:57:34;19.40;99.90
7572;DHT22;3827;49.928;8.548;2022-09-13T17:00:02;19.30;99.90
7572;DHT22;3827;49.928;8.548;2022-09-13T17:02:33;19.30;99.90